createdAt,value
2018-01-10T00:00:38.371Z,62.49
2018-01-10T00:01:38.664Z,62.37
2018-01-10T00:02:40.491Z,62.4
2018-01-10T00:03:38.804Z,62.39
2018-01-10T00:04:39.318Z,62.28
2018-01-10T00:05:44.275Z,62.72
2018-01-10T00:06:40.122Z,62.74
2018-01-10T00:07:37.667Z,63.27
2018-01-10T00:08:39.544Z,62.45
2018-01-10T00:09:38.588Z,62.93
2018-01-10T00:10:39.182Z,62.9
2018-01-10T00:11:40.597Z,62.56
2018-01-10T00:12:39.992Z,62.74
2018-01-10T00:13:40.119Z,62.17
2018-01-10T00:14:39.684Z,62.77
2018-01-10T00:15:39.276Z,63.01
2018-01-10T00:16:40.505Z,62.78
2018-01-10T00:17:38.506Z,63.86
2018-01-10T00:18:48.312Z,63.37
2018-01-10T00:19:39.104Z,63.06
2018-01-10T00:20:37.838Z,63.87
2018-01-10T00:21:43.244Z,63.58
2018-01-10T00:22:38.850Z,62.85
2018-01-10T00:23:41.763Z,63.16
2018-01-10T00:24:40.293Z,62.8
2018-01-10T00:25:41.701Z,62.98
2018-01-10T00:26:38.550Z,63.12
2018-01-10T00:27:39.788Z,62.92
2018-01-10T00:28:38.873Z,63.4
2018-01-10T00:29:38.774Z,63.44
2018-01-10T00:30:39.502Z,63.15
2018-01-10T00:31:39.171Z,63.42
2018-01-10T00:32:38.241Z,63.01
2018-01-10T00:33:38.582Z,63.22
2018-01-10T00:34:37.742Z,63.04
2018-01-10T00:35:38.256Z,63.01
2018-01-10T00:36:40.089Z,63.2
2018-01-10T00:37:40.366Z,62.91
2018-01-10T00:38:46.576Z,63.27
2018-01-10T00:39:38.508Z,62.89
2018-01-10T00:40:39.394Z,63.25
2018-01-10T00:41:38.209Z,63.33
2018-01-10T00:42:38.168Z,63.45
2018-01-10T00:43:42.007Z,63.63
2018-01-10T00:44:38.289Z,63.18
2018-01-10T00:45:39.859Z,63.18
2018-01-10T00:46:45.390Z,63.04
2018-01-10T00:47:38.198Z,63.24
2018-01-10T00:48:42.810Z,63.49
2018-01-10T00:49:38.453Z,63.56
2018-01-10T00:50:38.185Z,63.41
2018-01-10T00:51:38.515Z,64
2018-01-10T00:52:41.699Z,64.21
2018-01-10T00:53:42.939Z,64.25
2018-01-10T00:54:40.079Z,64.29
2018-01-10T00:55:42.236Z,64.11
2018-01-10T00:56:49.660Z,64.93
2018-01-10T00:57:40.387Z,64.32
2018-01-10T00:58:38.644Z,64.29
2018-01-10T00:59:39.599Z,64.26
2018-01-10T01:00:38.589Z,64.18
2018-01-10T01:01:37.770Z,63.81
2018-01-10T01:02:39.412Z,63.53
2018-01-10T01:03:38.697Z,63.51
2018-01-10T01:04:40.586Z,63.48
2018-01-10T01:05:38.457Z,63.09
2018-01-10T01:06:38.619Z,63.19
2018-01-10T01:07:39.433Z,63.66
2018-01-10T01:08:39.145Z,63.55
2018-01-10T01:09:38.461Z,63.43
2018-01-10T01:10:37.770Z,63.44
2018-01-10T01:11:38.222Z,64.09
2018-01-10T01:12:38.104Z,63.62
2018-01-10T01:13:39.128Z,63.99
2018-01-10T01:14:42.269Z,64.15
2018-01-10T01:15:40.062Z,63.85
2018-01-10T01:16:38.385Z,64.19
2018-01-10T01:17:39.654Z,63.77
2018-01-10T01:18:38.692Z,63.61
2018-01-10T01:19:38.275Z,63.48
2018-01-10T01:20:39.907Z,63.89
2018-01-10T01:21:47.633Z,63.57
2018-01-10T01:22:38.452Z,63.49
2018-01-10T01:23:38.441Z,63.57
2018-01-10T01:24:38.841Z,63.78
2018-01-10T01:25:40.543Z,63.83
2018-01-10T01:26:42.305Z,63.34
2018-01-10T01:27:38.721Z,63.59
2018-01-10T01:28:37.904Z,63.44
2018-01-10T01:29:41.654Z,63.33
2018-01-10T01:30:41.495Z,63.86
2018-01-10T01:31:39.184Z,63.73
2018-01-10T01:32:39.676Z,63.55
2018-01-10T01:33:42.217Z,63.47
2018-01-10T01:34:42.819Z,63.14
2018-01-10T01:35:46.811Z,63.28
2018-01-10T01:36:42.127Z,63.54
2018-01-10T01:37:40.430Z,63.74
2018-01-10T01:38:39.561Z,63.79
2018-01-10T01:39:38.675Z,63.61
2018-01-10T01:40:46.348Z,63.7
2018-01-10T01:41:39.067Z,63.82
2018-01-10T01:42:38.870Z,63.43
2018-01-10T01:43:42.075Z,63.48
2018-01-10T01:44:38.679Z,63.33
2018-01-10T01:45:42.310Z,63.86
2018-01-10T01:46:37.880Z,63.9
2018-01-10T01:47:38.706Z,64.08
2018-01-10T01:48:42.302Z,63.55
2018-01-10T01:49:52.087Z,63.37
2018-01-10T01:50:46.340Z,63.71
2018-01-10T01:51:38.657Z,63.98
2018-01-10T01:52:39.346Z,63.29
2018-01-10T01:53:42.058Z,63.39
2018-01-10T01:54:38.717Z,63.82
2018-01-10T01:55:38.061Z,63.86
2018-01-10T01:56:44.598Z,64.02
2018-01-10T01:57:48.309Z,63.59
2018-01-10T01:58:41.744Z,63.61
2018-01-10T01:59:38.358Z,63.54
2018-01-10T02:00:40.016Z,63.95
2018-01-10T02:01:48.113Z,63.93
2018-01-10T02:02:43.307Z,63.77
2018-01-10T02:03:39.209Z,63.76
2018-01-10T02:04:38.913Z,63.72
2018-01-10T02:05:39.919Z,64.2
2018-01-10T02:06:38.637Z,63.96
2018-01-10T02:07:40.893Z,63.81
2018-01-10T02:08:41.710Z,64.04
2018-01-10T02:09:41.559Z,63.66
2018-01-10T02:10:40.607Z,64.41
2018-01-10T02:11:38.727Z,64.08
2018-01-10T02:12:42.390Z,63.93
2018-01-10T02:13:39.151Z,63.95
2018-01-10T02:14:44.832Z,64.38
2018-01-10T02:15:40.974Z,64.48
2018-01-10T02:16:39.726Z,64.79
2018-01-10T02:17:39.321Z,64.52
2018-01-10T02:18:39.435Z,64.69
2018-01-10T02:19:39.329Z,64.36
2018-01-10T02:20:40.879Z,64.67
2018-01-10T02:21:38.508Z,64.71
2018-01-10T02:22:39.247Z,64.37
2018-01-10T02:23:40.895Z,64.99
2018-01-10T02:24:44.264Z,65.61
2018-01-10T02:25:44.918Z,65.64
2018-01-10T02:26:40.329Z,65.38
2018-01-10T02:27:38.743Z,65.25
2018-01-10T02:28:43.805Z,65.48
2018-01-10T02:29:38.441Z,65.31
2018-01-10T02:30:38.758Z,65.6
2018-01-10T02:31:44.736Z,65.44
2018-01-10T02:32:38.881Z,65.4
2018-01-10T02:33:40.299Z,65.33
2018-01-10T02:34:38.893Z,65.45
2018-01-10T02:35:38.223Z,65.59
2018-01-10T02:36:41.989Z,65.4
2018-01-10T02:37:38.903Z,65.8
2018-01-10T02:38:40.093Z,65.84
2018-01-10T02:39:40.375Z,65.6
2018-01-10T02:40:38.553Z,65.52
2018-01-10T02:41:48.474Z,65.83
2018-01-10T02:42:38.710Z,65.6
2018-01-10T02:43:39.084Z,65.31
2018-01-10T02:44:38.214Z,65.28
2018-01-10T02:45:38.757Z,65.56
2018-01-10T02:46:42.064Z,65.56
2018-01-10T02:47:38.462Z,65.33
2018-01-10T02:48:40.065Z,65.31
2018-01-10T02:49:39.185Z,65.49
2018-01-10T02:50:41.079Z,65.58
2018-01-10T02:51:39.653Z,65.28
2018-01-10T02:52:40.423Z,65.56
2018-01-10T02:53:42.442Z,65.34
2018-01-10T02:54:51.715Z,65.59
2018-01-10T02:55:38.092Z,65.71
2018-01-10T02:56:46.642Z,66.21
2018-01-10T02:57:38.672Z,65.68
2018-01-10T02:58:40.260Z,66.37
2018-01-10T02:59:38.267Z,65.88
2018-01-10T03:00:40.007Z,65.74
2018-01-10T03:01:40.558Z,65.57
2018-01-10T03:02:39.993Z,65.19
2018-01-10T03:03:39.422Z,64.91
2018-01-10T03:04:39.641Z,64.96
2018-01-10T03:05:38.111Z,65.02
2018-01-10T03:06:38.715Z,64.75
2018-01-10T03:07:38.422Z,64.82
2018-01-10T03:08:38.287Z,65.13
2018-01-10T03:09:40.932Z,64.44
2018-01-10T03:10:37.914Z,64.5
2018-01-10T03:11:38.212Z,64.87
2018-01-10T03:12:38.336Z,64.67
2018-01-10T03:13:38.446Z,64.62
2018-01-10T03:14:40.605Z,64.34
2018-01-10T03:15:38.650Z,64.64
2018-01-10T03:16:37.991Z,64.53
2018-01-10T03:17:38.705Z,64.57
2018-01-10T03:18:46.134Z,64.5
2018-01-10T03:19:38.998Z,64.84
2018-01-10T03:20:44.010Z,64.14
2018-01-10T03:21:39.932Z,64.27
2018-01-10T03:22:39.000Z,64.63
2018-01-10T03:23:38.717Z,64.7
2018-01-10T03:24:39.791Z,64.71
2018-01-10T03:25:42.621Z,64.3
2018-01-10T03:26:38.231Z,64.6
2018-01-10T03:27:46.544Z,64.5
2018-01-10T03:28:38.138Z,64.22
2018-01-10T03:29:37.820Z,64.15
2018-01-10T03:30:38.641Z,64.45
2018-01-10T03:31:38.148Z,64.39
2018-01-10T03:32:39.084Z,64.56
2018-01-10T03:33:49.127Z,64.75
2018-01-10T03:34:38.554Z,64.4
2018-01-10T03:35:39.693Z,64.5
2018-01-10T03:36:44.326Z,64.16
2018-01-10T03:37:40.473Z,64.06
2018-01-10T03:38:38.162Z,64.43
2018-01-10T03:39:38.998Z,64.11
2018-01-10T03:40:38.420Z,64.28
2018-01-10T03:41:38.938Z,64.01
2018-01-10T03:42:41.575Z,64.16
2018-01-10T03:43:41.512Z,63.99
2018-01-10T03:44:40.238Z,64.74
2018-01-10T03:45:38.317Z,64.12
2018-01-10T03:46:38.397Z,63.77
2018-01-10T03:47:38.280Z,64.46
2018-01-10T03:48:38.677Z,64.07
2018-01-10T03:49:42.424Z,63.8
2018-01-10T03:50:38.920Z,63.97
2018-01-10T03:51:40.096Z,64.21
2018-01-10T03:52:39.528Z,63.91
2018-01-10T03:53:44.004Z,63.92
2018-01-10T03:54:39.339Z,64.14
2018-01-10T03:55:40.289Z,64.55
2018-01-10T03:56:39.694Z,64.63
2018-01-10T03:57:40.007Z,64.67
2018-01-10T03:58:39.218Z,64.34
2018-01-10T03:59:43.911Z,64.24
2018-01-10T04:00:38.730Z,64.58
2018-01-10T04:01:38.601Z,64.53
2018-01-10T04:02:38.401Z,64.66
2018-01-10T04:03:39.697Z,64.58
2018-01-10T04:04:39.225Z,64.76
2018-01-10T04:05:39.492Z,65.09
2018-01-10T04:06:38.696Z,64.88
2018-01-10T04:07:39.129Z,64.67
2018-01-10T04:08:40.828Z,64.71
2018-01-10T04:09:39.290Z,64.81
2018-01-10T04:10:37.953Z,64.52
2018-01-10T04:11:38.191Z,65.05
2018-01-10T04:12:40.210Z,65.04
2018-01-10T04:13:38.392Z,64.94
2018-01-10T04:14:41.106Z,64.82
2018-01-10T04:15:39.700Z,65.03
2018-01-10T04:16:40.325Z,66.33
2018-01-10T04:17:38.893Z,66.09
2018-01-10T04:18:38.438Z,65.19
2018-01-10T04:19:38.399Z,64.98
2018-01-10T04:20:39.628Z,65.24
2018-01-10T04:21:39.204Z,64.99
2018-01-10T04:22:40.367Z,65.29
2018-01-10T04:23:40.528Z,64.46
2018-01-10T04:24:40.704Z,63.45
2018-01-10T04:25:39.462Z,62.84
2018-01-10T04:26:40.261Z,63.27
2018-01-10T04:27:41.559Z,62.76
2018-01-10T04:28:39.146Z,60.51
2018-01-10T04:29:40.573Z,62.01
2018-01-10T04:30:39.826Z,61.25
2018-01-10T04:31:40.855Z,60.2
2018-01-10T04:32:39.174Z,59.87
2018-01-10T04:33:39.071Z,59.74
2018-01-10T04:34:42.085Z,58.64
2018-01-10T04:35:40.004Z,58.47
2018-01-10T04:36:40.122Z,57.69
2018-01-10T04:37:40.556Z,57.46
2018-01-10T04:38:39.250Z,57.68
2018-01-10T04:39:38.946Z,57.09
2018-01-10T04:40:40.261Z,56.99
2018-01-10T04:41:39.630Z,56.83
2018-01-10T04:42:38.934Z,56.95
2018-01-10T04:43:43.462Z,56.48
2018-01-10T04:44:41.050Z,56.45
2018-01-10T04:45:40.185Z,59.31
2018-01-10T04:46:42.598Z,66.22
2018-01-10T04:47:40.251Z,63.4
2018-01-10T04:48:37.905Z,64.07
2018-01-10T04:49:38.774Z,61.64
2018-01-10T04:50:39.040Z,60.61
2018-01-10T04:51:39.016Z,61.11
2018-01-10T04:52:39.121Z,62
2018-01-10T04:53:41.108Z,66.2
2018-01-10T04:54:42.545Z,63.98
